Time;durP1;ratioP1;P1;durP2;ratioP2;P2;SDS_P1;SDS_P2;PMS_P1;PMS_P2;Temp;Humidity;BMP_temperature;BMP_pressure;BME280_temperature;BME280_humidity;BME280_pressure;Samples;Min_cycle;Max_cycle;Signal;HPM_P1;HPM_P2
2022/10/27 00:01:33;;;;;;;7.28;3.58;;;;;;;13.57;100.00;102040.06;4994131;28;20017;-84
2022/10/27 00:03:59;;;;;;;7.88;3.30;;;;;;;13.58;100.00;102039.94;5011902;28;20045;-84
2022/10/27 00:06:24;;;;;;;10.10;3.20;;;;;;;13.55;100.00;102034.88;5011334;28;20486;-82
2022/10/27 00:08:51;;;;;;;8.48;3.00;;;;;;;13.58;100.00;102039.94;5004535;28;20485;-82
2022/10/27 00:11:16;;;;;;;5.57;3.25;;;;;;;13.56;100.00;102046.28;5013583;28;20037;-85
2022/10/27 00:13:42;;;;;;;9.18;3.15;;;;;;;13.55;100.00;102039.31;5031262;28;20034;-82
2022/10/27 00:16:16;;;;;;;11.63;3.60;;;;;;;13.54;100.00;102043.75;5031291;28;20171;-81
2022/10/27 00:18:43;;;;;;;6.32;3.25;;;;;;;13.55;100.00;102044.59;5004440;28;20034;-81
2022/10/27 00:21:11;;;;;;;9.23;3.10;;;;;;;13.55;100.00;102049.88;5010932;28;20087;-81
2022/10/27 00:23:38;;;;;;;8.30;3.42;;;;;;;13.53;100.00;102050.00;4992086;28;20021;-81
2022/10/27 00:26:04;;;;;;;6.93;3.10;;;;;;;13.51;100.00;102049.25;5008481;28;20021;-81
2022/10/27 00:28:30;;;;;;;6.30;2.97;;;;;;;13.50;100.00;102052.84;4998649;28;20068;-81
2022/10/27 00:30:58;;;;;;;7.80;3.10;;;;;;;13.46;100.00;102056.66;5005919;28;20398;-81
2022/10/27 00:33:23;;;;;;;7.32;3.55;;;;;;;13.41;100.00;102048.19;5023342;28;20056;-81
2022/10/27 00:35:48;;;;;;;11.45;3.55;;;;;;;13.45;100.00;102050.50;5011656;28;20111;-82
2022/10/27 00:38:14;;;;;;;8.60;3.70;;;;;;;13.45;100.00;102045.22;5007740;28;20040;-81
2022/10/27 00:40:39;;;;;;;8.35;3.42;;;;;;;13.46;100.00;102048.72;4992121;28;20017;-81
2022/10/27 00:43:23;;;;;;;6.70;3.15;;;;;;;13.47;100.00;102059.19;4992632;28;20022;-81
2022/10/27 00:45:48;;;;;;;8.75;3.35;;;;;;;13.44;100.00;102058.56;4993013;28;20525;-82
2022/10/27 00:48:14;;;;;;;10.75;3.35;;;;;;;13.45;100.00;102060.25;4995431;28;20034;-81
2022/10/27 00:50:39;;;;;;;8.25;3.22;;;;;;;13.46;100.00;102060.13;5012521;28;20408;-82
2022/10/27 00:53:05;;;;;;;11.23;3.15;;;;;;;13.45;100.00;102061.09;5012260;28;20021;-81
2022/10/27 00:55:33;;;;;;;9.93;3.15;;;;;;;13.46;100.00;102064.59;5011233;28;20021;-84
2022/10/27 00:58:03;;;;;;;10.48;3.15;;;;;;;13.48;100.00;102067.97;5007603;28;20025;-81
2022/10/27 01:00:29;;;;;;;8.82;3.30;;;;;;;13.47;100.00;102059.19;5009208;28;20030;-81
2022/10/27 01:02:58;;;;;;;10.00;3.45;;;;;;;13.45;100.00;102062.88;5009547;28;20029;-82
2022/10/27 01:05:26;;;;;;;9.85;3.20;;;;;;;13.48;100.00;102067.97;5023082;28;20501;-82
2022/10/27 01:07:56;;;;;;;10.13;3.40;;;;;;;13.47;100.00;102061.00;5010904;28;20079;-84
2022/10/27 01:10:22;;;;;;;7.88;3.05;;;;;;;13.49;100.00;102067.88;5008953;28;20128;-81
2022/10/27 01:12:49;;;;;;;8.50;3.30;;;;;;;13.51;100.00;102065.13;4993373;28;20517;-81
2022/10/27 01:15:15;;;;;;;8.18;3.67;;;;;;;13.52;100.00;102063.31;4992281;28;20056;-83
2022/10/27 01:17:53;;;;;;;8.23;3.53;;;;;;;13.54;100.00;102069.34;4992522;28;20046;-81
2022/10/27 01:20:45;;;;;;;8.60;3.60;;;;;;;13.58;100.00;102070.84;5009995;28;20026;-81
2022/10/27 01:23:32;;;;;;;7.32;3.22;;;;;;;13.59;100.00;102070.72;4992035;28;20390;-84
2022/10/27 01:26:13;;;;;;;8.13;3.20;;;;;;;13.59;100.00;102073.38;5010099;28;20398;-81
2022/10/27 01:29:05;;;;;;;6.97;3.15;;;;;;;13.62;100.00;102075.00;5008101;28;20083;-81
2022/10/27 01:31:47;;;;;;;7.88;3.25;;;;;;;13.63;100.00;102082.84;4989214;28;20125;-80
2022/10/27 01:34:40;;;;;;;12.15;3.65;;;;;;;13.65;100.00;102075.63;4990107;28;20034;-80
2022/10/27 01:37:14;;;;;;;14.30;3.50;;;;;;;13.64;100.00;102079.22;5007472;28;20044;-80
2022/10/27 01:39:58;;;;;;;8.15;3.38;;;;;;;13.66;100.00;102074.69;4991755;28;20076;-81
2022/10/27 01:42:39;;;;;;;8.60;3.40;;;;;;;13.68;100.00;102074.59;4991491;28;20382;-80
2022/10/27 01:45:09;;;;;;;7.50;3.80;;;;;;;13.68;100.00;102082.53;5008361;28;20022;-83
2022/10/27 01:47:36;;;;;;;9.65;3.10;;;;;;;13.68;100.00;102070.13;4991441;28;20026;-79
2022/10/27 01:50:02;;;;;;;9.50;3.28;;;;;;;13.69;100.00;102074.47;4991446;28;20026;-79
2022/10/27 01:52:39;;;;;;;8.73;3.30;;;;;;;13.71;100.00;102077.03;5008233;28;20108;-79
2022/10/27 01:55:09;;;;;;;8.93;3.20;;;;;;;13.71;100.00;102069.09;4991168;28;20030;-82
2022/10/27 01:57:34;;;;;;;9.40;3.53;;;;;;;13.71;100.00;102067.28;5008040;28;20022;-82
2022/10/27 02:00:04;;;;;;;7.68;3.75;;;;;;;13.70;100.00;102070.88;4991314;28;20099;-82
2022/10/27 02:02:51;;;;;;;8.93;3.08;;;;;;;13.73;100.00;102073.31;4997384;28;20376;-81
2022/10/27 02:05:44;;;;;;;9.85;3.60;;;;;;;13.75;100.00;102068.78;5001516;28;20089;-81
2022/10/27 02:08:30;;;;;;;7.33;3.40;;;;;;;13.73;100.00;102059.25;4983969;28;20520;-84
2022/10/27 02:11:02;;;;;;;7.47;3.67;;;;;;;13.70;100.00;102065.59;5010139;28;20036;-81
2022/10/27 02:13:29;;;;;;;11.10;3.22;;;;;;;13.67;100.00;102064.97;4991495;28;20386;-82
2022/10/27 02:16:00;;;;;;;8.48;3.45;;;;;;;13.65;100.00;102062.41;5011298;28;20033;-85
2022/10/27 02:18:34;;;;;;;9.70;3.65;;;;;;;13.65;100.00;102061.56;5027813;28;20099;-84
2022/10/27 02:21:03;;;;;;;7.93;3.22;;;;;;;13.63;100.00;102055.53;5029593;28;20402;-84
2022/10/27 02:23:29;;;;;;;8.70;3.65;;;;;;;13.63;100.00;102055.53;5028629;28;20034;-81
2022/10/27 02:26:03;;;;;;;9.65;3.60;;;;;;;13.62;100.00;102056.50;5009794;28;20048;-84
2022/10/27 02:28:37;;;;;;;10.57;3.83;;;;;;;13.62;100.00;102052.03;5028332;28;20021;-81
2022/10/27 02:31:04;;;;;;;10.20;3.53;;;;;;;13.61;100.00;102049.47;5027125;28;20458;-81
2022/10/27 02:33:29;;;;;;;11.20;4.05;;;;;;;13.60;100.00;102048.63;5027038;28;20689;-81
2022/10/27 02:36:01;;;;;;;9.40;3.60;;;;;;;13.59;100.00;102051.38;5028267;28;20278;-84
2022/10/27 02:38:26;;;;;;;12.88;3.97;;;;;;;13.58;100.00;102054.97;5028563;28;20025;-81
2022/10/27 02:40:51;;;;;;;10.00;3.70;;;;;;;13.54;100.00;102049.03;5010131;28;20482;-81
2022/10/27 02:43:17;;;;;;;9.65;3.80;;;;;;;13.55;100.00;102049.88;5028066;28;20017;-81
2022/10/27 02:45:42;;;;;;;12.18;3.97;;;;;;;13.52;100.00;102048.31;5009586;28;20367;-81
2022/10/27 02:48:07;;;;;;;8.73;3.40;;;;;;;13.51;100.00;102048.41;5029160;28;20021;-84
2022/10/27 02:50:33;;;;;;;9.30;3.22;;;;;;;13.51;100.00;102043.97;5014501;28;20496;-81
2022/10/27 02:52:58;;;;;;;10.98;3.47;;;;;;;13.51;100.00;102046.59;5014300;28;20036;-81
2022/10/27 02:55:23;;;;;;;13.32;4.18;;;;;;;13.49;100.00;102040.56;5030821;28;20440;-82
2022/10/27 02:57:49;;;;;;;10.60;3.35;;;;;;;13.46;100.00;102041.63;5032402;28;20021;-81
2022/10/27 03:00:15;;;;;;;7.72;3.40;;;;;;;13.47;100.00;102047.75;5031831;28;20025;-82
2022/10/27 03:02:40;;;;;;;10.57;3.70;;;;;;;13.44;100.00;102046.19;5013844;28;20022;-82
2022/10/27 03:05:05;;;;;;;9.70;3.65;;;;;;;13.45;100.00;102039.09;5031185;28;20044;-81
2022/10/27 03:07:31;;;;;;;10.35;3.35;;;;;;;13.41;100.00;102037.59;5014920;28;20021;-81
2022/10/27 03:09:56;;;;;;;8.27;3.40;;;;;;;13.41;100.00;102021.75;5032099;28;20512;-81
2022/10/27 03:12:22;;;;;;;9.65;3.90;;;;;;;13.40;100.00;102020.06;5033031;28;20436;-81
2022/10/27 03:14:47;;;;;;;8.40;3.33;;;;;;;13.38;100.00;102019.31;5031638;28;20040;-81
2022/10/27 03:17:12;;;;;;;9.50;3.67;;;;;;;13.38;100.00;102017.50;5032331;28;20046;-81
2022/10/27 03:19:38;;;;;;;12.43;3.63;;;;;;;13.37;100.00;102020.25;5032819;28;20374;-81
2022/10/27 03:22:03;;;;;;;6.05;2.97;;;;;;;13.36;100.00;102013.28;5014020;28;20480;-81
2022/10/27 03:24:28;;;;;;;9.95;3.80;;;;;;;13.36;100.00;102008.84;5027245;28;20471;-81
2022/10/27 03:26:54;;;;;;;11.80;3.25;;;;;;;13.34;100.00;102009.88;5011290;28;20142;-81
2022/10/27 03:29:19;;;;;;;9.93;3.33;;;;;;;13.33;100.00;102008.19;5005904;28;20026;-84
2022/10/27 03:31:44;;;;;;;7.32;3.65;;;;;;;13.32;100.00;102011.78;4976754;28;20088;-81
2022/10/27 03:34:10;;;;;;;6.50;3.30;;;;;;;13.30;100.00;102008.41;5014442;28;20185;-81
2022/10/27 03:36:35;;;;;;;10.43;3.50;;;;;;;13.28;100.00;102005.03;5013151;28;20024;-81
2022/10/27 03:39:01;;;;;;;9.30;2.92;;;;;;;13.29;100.00;102007.56;5031151;28;20025;-84
2022/10/27 03:41:26;;;;;;;6.70;3.03;;;;;;;13.28;100.00;102002.38;4997002;28;20033;-81
2022/10/27 03:43:51;;;;;;;8.82;3.60;;;;;;;13.28;100.00;102002.38;4994531;28;20116;-84
2022/10/27 03:46:17;;;;;;;10.93;3.50;;;;;;;13.28;100.00;101997.09;5030473;28;20385;-82
2022/10/27 03:48:42;;;;;;;8.20;3.50;;;;;;;13.25;100.00;102000.78;5013379;28;20724;-82
2022/10/27 03:51:08;;;;;;;9.00;3.50;;;;;;;13.25;100.00;101994.66;5030379;28;20025;-81
2022/10/27 03:53:33;;;;;;;8.48;3.50;;;;;;;13.25;100.00;101999.94;5013278;28;20451;-81
2022/10/27 03:55:59;;;;;;;9.25;3.10;;;;;;;13.23;100.00;101997.41;4994670;28;20441;-81
2022/10/27 03:58:24;;;;;;;8.27;3.10;;;;;;;13.22;100.00;101994.84;5010465;28;20234;-81
2022/10/27 04:00:50;;;;;;;9.30;3.40;;;;;;;13.21;100.00;101994.00;5010022;28;20116;-81
2022/10/27 04:03:15;;;;;;;4.88;2.75;;;;;;;13.20;100.00;101999.38;4993199;28;20100;-81
2022/10/27 04:05:41;;;;;;;7.45;3.10;;;;;;;13.17;100.00;101995.13;5011517;28;20511;-81
2022/10/27 04:08:06;;;;;;;9.25;2.92;;;;;;;13.17;100.00;102003.91;4993214;28;20032;-81
2022/10/27 04:10:31;;;;;;;6.75;2.92;;;;;;;13.14;100.00;102004.09;4994397;28;20034;-81
2022/10/27 04:12:57;;;;;;;6.57;2.95;;;;;;;13.12;100.00;102005.97;4993333;28;20383;-81
2022/10/27 04:15:24;;;;;;;4.18;2.50;;;;;;;13.12;100.00;102011.28;4993721;28;20040;-81
2022/10/27 04:17:58;;;;;;;8.50;3.22;;;;;;;13.11;100.00;102016.66;5026196;28;20049;-81
2022/10/27 04:20:24;;;;;;;13.75;3.00;;;;;;;13.10;100.00;102018.44;5031272;28;20538;-81
2022/10/27 04:22:50;;;;;;;5.78;2.40;;;;;;;13.10;100.00;102021.09;5030192;28;20056;-81
2022/10/27 04:25:15;;;;;;;7.13;2.58;;;;;;;13.11;100.00;102017.50;5015287;28;20075;-81
2022/10/27 04:27:41;;;;;;;8.88;3.00;;;;;;;13.08;100.00;102017.72;5026515;28;20022;-83
2022/10/27 04:30:07;;;;;;;5.65;2.75;;;;;;;13.05;100.00;102028.47;5009713;28;20022;-83
2022/10/27 04:32:32;;;;;;;8.70;2.90;;;;;;;13.03;100.00;102022.44;5008637;28;20440;-79
2022/10/27 04:34:57;;;;;;;7.40;2.90;;;;;;;12.98;100.00;102024.53;5009858;28;20033;-82
2022/10/27 04:37:23;;;;;;;8.13;2.75;;;;;;;12.99;100.00;102017.47;5011522;28;20467;-82
2022/10/27 04:39:48;;;;;;;7.88;2.90;;;;;;;12.98;100.00;102024.53;5011554;28;20018;-82
2022/10/27 04:42:13;;;;;;;8.60;2.92;;;;;;;12.95;100.00;102024.75;5010381;28;20110;-81
2022/10/27 04:44:39;;;;;;;9.82;3.20;;;;;;;12.97;100.00;102022.84;5010419;28;20234;-82
2022/10/27 04:47:04;;;;;;;11.73;3.10;;;;;;;12.96;100.00;102025.59;5008259;28;20042;-81
2022/10/27 04:49:29;;;;;;;6.88;2.85;;;;;;;12.97;100.00;102028.13;5010281;28;20037;-82
2022/10/27 04:51:59;;;;;;;8.38;3.33;;;;;;;12.96;100.00;102028.25;5009467;28;20594;-82
2022/10/27 04:54:24;;;;;;;8.57;3.20;;;;;;;12.94;100.00;102023.06;5009876;28;20026;-81
2022/10/27 04:56:50;;;;;;;8.55;3.03;;;;;;;12.96;100.00;102021.16;5009128;28;20445;-84
2022/10/27 04:59:15;;;;;;;7.90;3.17;;;;;;;12.98;100.00;102021.06;5009977;28;20030;-82
2022/10/27 05:01:40;;;;;;;10.50;4.07;;;;;;;12.97;100.00;102028.13;5009039;28;20057;-81
2022/10/27 05:04:06;;;;;;;9.50;3.60;;;;;;;12.96;100.00;102023.81;5009832;28;20442;-81
2022/10/27 05:06:31;;;;;;;9.38;3.45;;;;;;;13.01;100.00;102024.34;5008772;28;20030;-83
2022/10/27 05:08:56;;;;;;;11.13;3.78;;;;;;;13.03;100.00;102025.09;5008832;28;20451;-83
2022/10/27 05:11:22;;;;;;;6.90;3.55;;;;;;;13.06;100.00;102024.88;5008220;28;20458;-81
2022/10/27 05:13:50;;;;;;;14.50;3.60;;;;;;;13.07;100.00;102023.94;5027340;28;20029;-83
2022/10/27 05:16:17;;;;;;;10.05;3.92;;;;;;;13.09;100.00;102027.31;5007472;28;20715;-83
2022/10/27 05:18:42;;;;;;;6.70;3.40;;;;;;;13.08;100.00;102032.72;5011055;28;20298;-81
2022/10/27 05:21:08;;;;;;;9.32;3.85;;;;;;;13.09;100.00;102021.19;4994938;28;20478;-81
2022/10/27 05:23:33;;;;;;;12.70;4.30;;;;;;;13.08;100.00;102025.63;5029667;28;20030;-81
2022/10/27 05:25:58;;;;;;;7.80;3.78;;;;;;;13.10;100.00;102021.09;5030376;28;20056;-81
2022/10/27 05:28:24;;;;;;;13.00;4.03;;;;;;;13.12;100.00;102024.47;5010080;28;20037;-81
2022/10/27 05:30:49;;;;;;;11.77;4.07;;;;;;;13.10;100.00;102022.88;5011627;28;20021;-81
2022/10/27 05:33:14;;;;;;;10.00;4.10;;;;;;;13.12;100.00;102015.72;5010481;28;20179;-81
2022/10/27 05:35:41;;;;;;;11.85;4.18;;;;;;;13.08;100.00;102012.41;5028943;28;20030;-79
2022/10/27 05:38:06;;;;;;;12.63;4.57;;;;;;;13.10;100.00;102021.09;5027444;28;20021;-79
2022/10/27 05:40:35;;;;;;;8.93;4.20;;;;;;;13.10;100.00;102013.16;5011378;28;20037;-79
2022/10/27 05:43:01;;;;;;;9.68;4.13;;;;;;;13.09;100.00;102013.28;5028533;28;20029;-79
2022/10/27 05:45:27;;;;;;;11.27;4.32;;;;;;;13.07;100.00;102016.00;5030199;28;20052;-79
2022/10/27 05:48:10;;;;;;;11.32;3.90;;;;;;;13.12;100.00;102005.13;5012882;28;20025;-80
2022/10/27 05:50:36;;;;;;;12.57;3.88;;;;;;;13.09;100.00;102000.06;5028398;28;20025;-80
2022/10/27 05:53:01;;;;;;;9.07;4.05;;;;;;;13.10;100.00;102001.75;5011840;28;20032;-79
2022/10/27 05:55:27;;;;;;;11.10;4.03;;;;;;;13.11;100.00;102008.72;5010973;28;20025;-80
2022/10/27 05:58:00;;;;;;;11.10;3.65;;;;;;;13.13;100.00;102007.69;5008942;28;20104;-80
2022/10/27 06:00:29;;;;;;;7.57;3.45;;;;;;;13.12;100.00;102000.69;4999158;28;20067;-80
2022/10/27 06:03:00;;;;;;;14.15;3.55;;;;;;;13.16;100.00;102004.84;5009157;28;20033;-80
2022/10/27 06:05:29;;;;;;;9.57;3.40;;;;;;;13.21;100.00;102006.34;5004019;28;20087;-81
2022/10/27 06:07:56;;;;;;;8.30;3.10;;;;;;;13.21;100.00;102009.88;5010974;28;20132;-81
2022/10/27 06:10:22;;;;;;;7.40;3.17;;;;;;;13.22;100.00;102002.78;5010672;28;20029;-80
2022/10/27 06:12:47;;;;;;;9.98;3.22;;;;;;;13.22;100.00;102008.06;5022886;28;20017;-80
2022/10/27 06:15:12;;;;;;;14.52;3.75;;;;;;;13.24;100.00;102000.88;4993932;28;20390;-79
2022/10/27 06:17:38;;;;;;;11.23;3.72;;;;;;;13.26;100.00;102002.47;5005372;28;20133;-82
2022/10/27 06:20:04;;;;;;;10.40;3.20;;;;;;;13.27;100.00;101998.03;5004971;28;20502;-79
2022/10/27 06:22:30;;;;;;;9.60;3.55;;;;;;;13.25;100.00;101994.66;5007751;28;20053;-80
2022/10/27 06:24:58;;;;;;;7.03;3.22;;;;;;;13.27;100.00;101992.75;4985673;28;20539;-79
2022/10/27 06:27:24;;;;;;;11.70;3.50;;;;;;;13.25;100.00;101999.94;5009728;28;20482;-80
2022/10/27 06:29:49;;;;;;;7.47;2.97;;;;;;;13.26;100.00;101997.19;5014238;28;20083;-80
2022/10/27 06:32:15;;;;;;;5.10;2.53;;;;;;;13.28;100.00;101999.72;5008153;28;20186;-80
2022/10/27 06:34:40;;;;;;;5.20;2.40;;;;;;;13.32;100.00;101990.66;5010875;28;20041;-79
2022/10/27 06:37:05;;;;;;;8.75;2.88;;;;;;;13.30;100.00;101982.81;5008093;28;20025;-80
2022/10/27 06:39:31;;;;;;;10.95;3.08;;;;;;;13.30;100.00;101980.19;5004123;28;20030;-82
2022/10/27 06:41:57;;;;;;;5.40;2.33;;;;;;;13.31;100.00;101979.22;5010173;28;20021;-79
2022/10/27 06:44:23;;;;;;;5.63;2.63;;;;;;;13.33;100.00;101987.06;5012187;28;20072;-79
2022/10/27 06:46:49;;;;;;;6.13;2.45;;;;;;;13.36;99.85;101976.25;5013144;28;20025;-79
2022/10/27 06:49:14;;;;;;;2.97;1.70;;;;;;;13.42;98.75;101975.84;5008780;28;20030;-80
2022/10/27 06:51:39;;;;;;;5.47;2.00;;;;;;;13.49;97.89;101975.31;5008891;28;20543;-80
2022/10/27 06:54:05;;;;;;;5.85;2.00;;;;;;;13.53;97.67;101978.59;5016170;28;20124;-86
2022/10/27 06:56:30;;;;;;;6.28;2.47;;;;;;;13.57;97.51;101974.78;5007941;28;20025;-77
2022/10/27 06:58:59;;;;;;;5.78;2.38;;;;;;;13.58;97.27;101976.47;5006492;28;20050;-76
2022/10/27 07:01:25;;;;;;;6.10;2.40;;;;;;;13.58;97.35;101965.91;5009171;28;20044;-86
2022/10/27 07:03:50;;;;;;;9.55;2.35;;;;;;;13.61;97.46;101973.66;5007893;28;20478;-85
2022/10/27 07:06:16;;;;;;;5.82;2.42;;;;;;;13.61;97.75;101976.31;5007557;28;20120;-76
2022/10/27 07:08:41;;;;;;;7.60;2.63;;;;;;;13.65;97.57;101976.94;5007291;28;20363;-76
2022/10/27 07:11:06;;;;;;;11.73;2.45;;;;;;;13.66;97.70;101975.97;5007094;28;20060;-77
2022/10/27 07:13:32;;;;;;;8.27;2.47;;;;;;;13.64;98.17;101981.38;5004402;28;20034;-76
2022/10/27 07:15:57;;;;;;;5.90;2.50;;;;;;;13.67;97.58;101990.91;5007180;28;20022;-77
2022/10/27 07:18:22;;;;;;;4.88;2.30;;;;;;;13.69;97.52;101986.34;5025909;28;20044;-77
2022/10/27 07:20:50;;;;;;;5.13;2.78;;;;;;;13.74;97.15;101985.06;5007731;28;20473;-78
2022/10/27 07:23:15;;;;;;;6.80;3.05;;;;;;;13.75;96.53;101994.72;5011919;28;20079;-77
2022/10/27 07:25:40;;;;;;;6.43;3.03;;;;;;;13.77;96.99;101981.38;5028064;28;20029;-77
2022/10/27 07:28:06;;;;;;;6.63;3.50;;;;;;;13.78;96.82;101972.47;5026716;28;20021;-77
2022/10/27 07:30:38;;;;;;;11.20;3.17;;;;;;;13.82;96.89;101978.41;5027038;28;20068;-77
2022/10/27 07:33:03;;;;;;;7.18;3.20;;;;;;;13.79;96.56;101972.38;5029181;28;20028;-77
2022/10/27 07:35:30;;;;;;;7.00;3.10;;;;;;;13.84;96.59;101976.50;5013340;28;20037;-84
2022/10/27 07:37:58;;;;;;;10.55;3.22;;;;;;;13.89;95.99;101979.66;5032224;28;20489;-80
2022/10/27 07:40:24;;;;;;;5.85;2.72;;;;;;;13.92;96.06;101977.66;5031842;28;20041;-80
2022/10/27 07:42:55;;;;;;;7.60;2.88;;;;;;;13.97;96.04;101977.31;5030827;28;20064;-80
2022/10/27 07:45:23;;;;;;;5.22;2.75;;;;;;;14.03;95.45;101983.06;5014154;28;20025;-80
2022/10/27 07:47:50;;;;;;;6.35;2.45;;;;;;;14.12;94.96;101986.84;5032272;28;20043;-78
2022/10/27 07:50:17;;;;;;;5.57;2.67;;;;;;;14.16;94.24;101990.97;5031140;28;20056;-78
2022/10/27 07:52:51;;;;;;;4.32;2.20;;;;;;;14.22;94.22;101997.63;5031853;28;20036;-78
2022/10/27 07:55:21;;;;;;;6.93;2.17;;;;;;;14.30;92.46;101996.13;5031596;28;20441;-80
2022/10/27 07:57:46;;;;;;;8.20;2.22;;;;;;;14.34;92.48;101991.44;5031343;28;20013;-80
2022/10/27 08:00:14;;;;;;;7.50;2.30;;;;;;;14.41;92.04;101992.72;5031407;28;20026;-80
2022/10/27 08:02:41;;;;;;;4.97;2.58;;;;;;;14.46;91.52;101980.03;5032230;28;20029;-80
2022/10/27 08:05:07;;;;;;;5.25;2.15;;;;;;;14.50;90.79;101975.34;5031300;28;20432;-80
2022/10/27 08:07:32;;;;;;;6.00;2.17;;;;;;;14.54;90.05;101975.03;5013611;28;20025;-81
2022/10/27 08:09:58;;;;;;;7.35;2.38;;;;;;;14.56;90.16;101980.22;5031290;28;20076;-78
2022/10/27 08:12:23;;;;;;;7.32;2.25;;;;;;;14.58;90.52;101983.59;5031063;28;20104;-79
2022/10/27 08:14:49;;;;;;;5.70;2.00;;;;;;;14.64;89.84;101980.50;5031367;28;20025;-79
2022/10/27 08:17:14;;;;;;;9.82;2.50;;;;;;;14.72;89.61;101970.16;5009163;28;20134;-79
2022/10/27 08:19:40;;;;;;;8.55;2.17;;;;;;;14.78;89.13;101959.13;5031167;28;20105;-80
2022/10/27 08:22:06;;;;;;;6.78;2.30;;;;;;;14.85;88.44;101955.06;5013101;28;20068;-80
2022/10/27 08:24:31;;;;;;;6.10;2.15;;;;;;;14.90;88.56;101968.81;5030376;28;20029;-80
2022/10/27 08:26:57;;;;;;;3.40;1.85;;;;;;;15.05;87.50;101962.38;5030799;28;20044;-80
2022/10/27 08:29:22;;;;;;;4.40;1.73;;;;;;;15.14;86.98;101966.13;5030714;28;20091;-80
2022/10/27 08:31:47;;;;;;;4.10;1.70;;;;;;;15.27;86.06;101966.91;5030206;28;20032;-80
2022/10/27 08:34:13;;;;;;;3.70;1.80;;;;;;;15.39;85.28;101973.09;5030335;28;20030;-80
2022/10/27 08:36:38;;;;;;;8.05;1.85;;;;;;;15.54;84.46;101971.91;5013233;28;20031;-80
2022/10/27 08:39:12;;;;;;;4.05;1.58;;;;;;;15.66;84.28;101962.22;5030286;28;20059;-80
2022/10/27 08:41:46;;;;;;;4.07;1.55;;;;;;;15.80;82.77;101958.47;5030636;28;20087;-80
2022/10/27 08:44:21;;;;;;;4.10;1.30;;;;;;;15.91;82.41;101966.44;5028255;28;20053;-78
2022/10/27 08:46:51;;;;;;;2.65;1.30;;;;;;;16.02;80.26;101961.13;5029825;28;20033;-80
2022/10/27 08:49:39;;;;;;;4.95;1.17;;;;;;;16.09;82.00;101958.84;5012249;28;20040;-80
2022/10/27 08:52:15;;;;;;;5.32;1.35;;;;;;;16.17;79.90;101948.44;5012868;28;21215;-80
2022/10/27 08:54:46;;;;;;;6.35;1.30;;;;;;;16.23;78.48;101946.13;5012858;28;20029;-80
2022/10/27 08:57:18;;;;;;;4.43;1.10;;;;;;;16.29;78.62;101935.00;5030704;28;20091;-80
2022/10/27 08:59:44;;;;;;;3.90;1.20;;;;;;;16.44;77.89;101932.09;5030588;28;20025;-80
2022/10/27 09:02:43;;;;;;;3.17;1.23;;;;;;;16.58;78.58;101927.34;5030779;28;20504;-80
2022/10/27 09:05:33;;;;;;;3.45;1.27;;;;;;;16.70;77.09;101919.34;4989900;28;20052;-78
2022/10/27 09:08:19;;;;;;;4.88;1.70;;;;;;;16.78;75.88;101920.41;5012206;28;20389;-79
2022/10/27 09:11:07;;;;;;;6.38;1.83;;;;;;;16.86;77.20;101922.44;5030389;28;20514;-79
2022/10/27 09:13:35;;;;;;;3.88;1.30;;;;;;;16.96;75.08;101922.50;5030020;28;20025;-81
2022/10/27 09:16:03;;;;;;;3.80;0.93;;;;;;;17.03;74.96;101921.03;5029853;28;20025;-80
2022/10/27 09:18:50;;;;;;;4.82;1.25;;;;;;;17.16;75.62;101929.63;5012370;28;20056;-80
2022/10/27 09:21:20;;;;;;;4.57;1.10;;;;;;;17.16;73.48;101921.66;5029157;28;20091;-81
2022/10/27 09:23:51;;;;;;;5.55;1.20;;;;;;;17.23;73.21;101925.50;5030137;28;20091;-80
2022/10/27 09:26:21;;;;;;;6.15;1.25;;;;;;;17.29;73.93;101925.00;5011532;28;20478;-80
2022/10/27 09:28:50;;;;;;;7.78;1.25;;;;;;;17.35;73.31;101920.97;5011587;28;20041;-80
2022/10/27 09:31:20;;;;;;;5.47;1.25;;;;;;;17.43;72.90;101911.34;5011555;28;20036;-79
2022/10/27 09:33:58;;;;;;;4.40;1.10;;;;;;;17.47;73.56;101910.09;5029917;28;20159;-80
2022/10/27 09:36:23;;;;;;;5.78;1.45;;;;;;;17.54;72.86;101900.59;5028865;28;20083;-80
2022/10/27 09:38:49;;;;;;;5.25;1.02;;;;;;;17.58;72.41;101897.66;5018429;28;20025;-80
2022/10/27 09:41:14;;;;;;;5.28;1.08;;;;;;;17.66;72.88;101897.88;5018316;28;20738;-78
2022/10/27 09:43:40;;;;;;;5.20;1.10;;;;;;;17.74;73.11;101890.09;5001255;28;20104;-80
2022/10/27 09:46:14;;;;;;;5.25;1.15;;;;;;;17.76;71.88;101882.81;5019654;28;20486;-77
2022/10/27 09:48:40;;;;;;;4.40;1.05;;;;;;;17.83;72.61;101892.78;5020058;28;20043;-80
2022/10/27 09:51:16;;;;;;;4.05;1.30;;;;;;;17.96;72.55;101889.88;5019768;28;20025;-80
2022/10/27 09:53:47;;;;;;;5.45;1.42;;;;;;;17.99;71.06;101886.94;5021762;28;20025;-81
2022/10/27 09:56:18;;;;;;;4.22;1.17;;;;;;;18.14;72.40;101890.91;5017159;28;20120;-80
2022/10/27 09:58:59;;;;;;;4.47;1.67;;;;;;;18.21;71.29;101895.69;5000385;28;20041;-80
2022/10/27 10:01:26;;;;;;;4.75;1.30;;;;;;;18.28;70.85;101897.66;5020819;28;20021;-81
2022/10/27 10:03:58;;;;;;;3.47;1.10;;;;;;;18.33;70.45;101900.75;5018294;28;20394;-80
2022/10/27 10:06:35;;;;;;;5.78;1.30;;;;;;;18.41;70.62;101892.94;5021052;28;20131;-80
2022/10/27 10:09:22;;;;;;;6.88;1.52;;;;;;;18.51;71.55;101884.94;5018593;28;20033;-78
2022/10/27 10:11:48;;;;;;;8.00;1.50;;;;;;;18.60;70.30;101870.75;5010886;28;20021;-78
2022/10/27 10:14:23;;;;;;;4.75;1.40;;;;;;;18.73;69.47;101874.00;5019373;28;20014;-80
2022/10/27 10:16:51;;;;;;;2.80;1.35;;;;;;;18.83;68.91;101868.69;5018955;28;20064;-79
2022/10/27 10:19:22;;;;;;;8.25;1.50;;;;;;;18.94;69.35;101868.53;5018657;28;20022;-79
2022/10/27 10:21:57;;;;;;;10.23;1.60;;;;;;;18.93;67.75;101866.00;5010713;28;20160;-80
2022/10/27 10:24:27;;;;;;;5.65;1.13;;;;;;;18.97;66.93;101873.56;5008124;28;20437;-79
2022/10/27 10:27:00;;;;;;;4.45;1.50;;;;;;;18.99;66.88;101863.59;5009038;28;20029;-79
2022/10/27 10:29:30;;;;;;;6.57;1.55;;;;;;;19.02;67.09;101865.13;5010598;28;20033;-79
2022/10/27 10:32:15;;;;;;;7.10;1.85;;;;;;;19.09;68.96;101871.56;5027799;28;20033;-79
2022/10/27 10:34:44;;;;;;;10.45;2.05;;;;;;;19.12;66.76;101870.44;5028799;28;20033;-79
2022/10/27 10:37:29;;;;;;;5.35;1.52;;;;;;;19.16;68.08;101867.34;5027978;28;20085;-79
2022/10/27 10:40:07;;;;;;;3.40;1.13;;;;;;;19.18;66.78;101846.69;5028203;28;20025;-79
2022/10/27 10:42:32;;;;;;;6.43;1.35;;;;;;;19.20;67.02;101854.53;5028334;28;20040;-79
2022/10/27 10:45:22;;;;;;;6.05;1.48;;;;;;;19.22;67.49;101844.59;5027699;28;20363;-79
2022/10/27 10:47:55;;;;;;;4.85;1.45;;;;;;;19.20;67.03;101850.06;5028592;28;20030;-79
2022/10/27 10:50:21;;;;;;;7.28;1.52;;;;;;;19.31;66.48;101849.91;5009533;28;20029;-79
2022/10/27 10:52:51;;;;;;;5.72;1.80;;;;;;;19.39;67.13;101841.16;5028103;28;20045;-79
2022/10/27 10:55:19;;;;;;;5.72;1.60;;;;;;;19.46;65.84;101841.41;5028377;28;20037;-79
2022/10/27 10:57:45;;;;;;;8.20;1.35;;;;;;;19.44;65.88;101843.38;5029343;28;20031;-79
2022/10/27 11:00:17;;;;;;;3.55;1.20;;;;;;;19.41;66.99;101840.03;5028182;28;20436;-79
2022/10/27 11:02:56;;;;;;;4.97;1.40;;;;;;;19.45;66.98;101839.72;5010786;28;20094;-79
2022/10/27 11:05:35;;;;;;;7.45;1.45;;;;;;;19.42;67.67;101841.69;5016668;28;20597;-79
2022/10/27 11:08:03;;;;;;;10.38;1.63;;;;;;;19.42;66.64;101844.38;5009643;28;20486;-79
2022/10/27 11:10:32;;;;;;;5.80;1.23;;;;;;;19.47;67.49;101848.44;5011919;28;20401;-79
2022/10/27 11:13:05;;;;;;;6.93;1.63;;;;;;;19.46;67.69;101849.41;5012490;28;20057;-79
2022/10/27 11:15:36;;;;;;;;;;;;;;;19.59;70.44;101841.94;5013704;28;20030;-79
2022/10/27 11:18:13;;;;;;;7.97;1.85;;;;;;;19.57;67.90;101827.88;5030226;28;19999;-79
2022/10/27 11:20:41;;;;;;;4.57;1.30;;;;;;;19.53;66.94;101831.84;5014598;28;20036;-79
2022/10/27 11:23:44;;;;;;;10.20;1.95;;;;;;;19.55;67.94;101837.88;5032014;28;20021;-79
2022/10/27 11:26:12;;;;;;;6.55;1.50;;;;;;;19.48;67.86;101832.25;4960206;28;20064;-79
2022/10/27 11:28:37;;;;;;;12.13;2.10;;;;;;;19.45;68.40;101839.72;5017629;28;20389;-80